Time;durP1;ratioP1;P1;durP2;ratioP2;P2;SDS_P1;SDS_P2;PMS_P1;PMS_P2;Temp;Humidity;BMP_temperature;BMP_pressure;BME280_temperature;BME280_humidity;BME280_pressure;Samples;Min_cycle;Max_cycle;Signal;HPM_P1;HPM_P2
2021/12/14 00:02:23;;;;;;;;;;;8.00;99.90;;;;;;5000162;28;19926;-74
2021/12/14 00:04:50;;;;;;;;;;;7.90;99.90;;;;;;4992456;28;20653;-74
2021/12/14 00:07:17;;;;;;;;;;;8.00;99.90;;;;;;4991911;28;20031;-74
2021/12/14 00:09:45;;;;;;;;;;;8.00;99.90;;;;;;5006488;28;19929;-74
2021/12/14 00:12:29;;;;;;;;;;;8.00;99.90;;;;;;5000409;28;19932;-75
2021/12/14 00:15:04;;;;;;;;;;;7.90;99.90;;;;;;5014312;28;19933;-74
2021/12/14 00:17:33;;;;;;;;;;;7.90;99.90;;;;;;5007853;28;19965;-74
2021/12/14 00:20:01;;;;;;;;;;;7.90;99.90;;;;;;5007486;28;19925;-74
2021/12/14 00:22:35;;;;;;;;;;;7.80;99.90;;;;;;5010947;28;19934;-74
2021/12/14 00:25:01;;;;;;;;;;;7.80;99.90;;;;;;5004470;28;19930;-74
2021/12/14 00:27:29;;;;;;;;;;;7.80;99.90;;;;;;5010093;28;19933;-74
2021/12/14 00:29:57;;;;;;;;;;;7.80;99.90;;;;;;5003067;28;19926;-74
2021/12/14 00:32:27;;;;;;;;;;;7.80;99.90;;;;;;5005258;28;19936;-74
2021/12/14 00:34:57;;;;;;;;;;;7.80;99.90;;;;;;5003783;28;19929;-74
2021/12/14 00:37:27;;;;;;;;;;;7.80;99.90;;;;;;5009575;28;19929;-74
2021/12/14 00:39:55;;;;;;;;;;;7.80;99.90;;;;;;5004001;28;19926;-74
2021/12/14 00:42:22;;;;;;;;;;;7.80;99.90;;;;;;5006538;28;19926;-73
2021/12/14 00:44:50;;;;;;;;;;;7.80;99.90;;;;;;5017739;28;19948;-74
2021/12/14 00:47:17;;;;;;;;;;;7.70;99.90;;;;;;5011964;28;19925;-74
2021/12/14 00:49:44;;;;;;;;;;;7.70;99.90;;;;;;5015213;28;20269;-73
2021/12/14 00:52:11;;;;;;;;;;;7.70;99.90;;;;;;5009113;28;19932;-75
2021/12/14 00:54:38;;;;;;;;;;;7.70;99.90;;;;;;5015372;28;19931;-74
2021/12/14 00:57:05;;;;;;;;;;;7.80;99.90;;;;;;5007442;28;19926;-75
2021/12/14 00:59:33;;;;;;;;;;;7.80;99.90;;;;;;5015165;28;19932;-75
2021/12/14 01:02:05;;;;;;;;;;;7.70;99.90;;;;;;5009107;28;19971;-74
2021/12/14 01:04:41;;;;;;;;;;;7.70;99.90;;;;;;5003498;28;19976;-75
2021/12/14 01:07:09;;;;;;;;;;;7.60;99.90;;;;;;5003967;28;19926;-74
2021/12/14 01:09:37;;;;;;;;;;;7.60;99.90;;;;;;5003640;28;19926;-74
2021/12/14 01:12:10;;;;;;;;;;;7.60;99.90;;;;;;5003999;28;19932;-75
2021/12/14 01:14:42;;;;;;;;;;;7.60;99.90;;;;;;5012118;28;19932;-74
2021/12/14 01:17:24;;;;;;;;;;;7.60;99.90;;;;;;5010764;28;19930;-76
2021/12/14 01:19:56;;;;;;;;;;;7.60;99.90;;;;;;5003976;28;19926;-74
2021/12/14 01:22:37;;;;;;;;;;;7.50;99.90;;;;;;5001767;28;19972;-74
2021/12/14 01:25:09;;;;;;;;;;;7.50;99.90;;;;;;4999072;28;19932;-74
2021/12/14 01:27:38;;;;;;;;;;;7.50;99.90;;;;;;5006510;28;19971;-74
2021/12/14 01:30:08;;;;;;;;;;;7.50;99.90;;;;;;5017514;28;19932;-77
2021/12/14 01:32:40;;;;;;;;;;;7.50;99.90;;;;;;5012560;28;19976;-74
2021/12/14 01:35:12;;;;;;;;;;;7.50;99.90;;;;;;5014243;28;19972;-74
2021/12/14 01:37:44;;;;;;;;;;;7.50;99.90;;;;;;5006146;28;19933;-74
2021/12/14 01:40:19;;;;;;;;;;;7.50;99.90;;;;;;5010339;28;19925;-74
2021/12/14 01:42:46;;;;;;;;;;;7.50;99.90;;;;;;5003831;28;20000;-74
2021/12/14 01:45:15;;;;;;;;;;;7.40;99.90;;;;;;4997125;28;19965;-74
2021/12/14 01:47:45;;;;;;;;;;;7.50;99.90;;;;;;5001799;28;19940;-75
2021/12/14 01:50:14;;;;;;;;;;;7.50;99.90;;;;;;5000204;28;19925;-75
2021/12/14 01:52:41;;;;;;;;;;;7.50;99.90;;;;;;5007726;28;19932;-74
2021/12/14 01:55:13;;;;;;;;;;;7.50;99.90;;;;;;5014508;28;19971;-74
2021/12/14 01:57:42;;;;;;;;;;;7.50;99.90;;;;;;5010228;28;19925;-73
2021/12/14 02:00:10;;;;;;;;;;;7.50;99.90;;;;;;5010537;28;19932;-75
2021/12/14 02:02:42;;;;;;;;;;;7.40;99.90;;;;;;5003387;28;19926;-74
2021/12/14 02:05:16;;;;;;;;;;;7.40;99.90;;;;;;5008479;28;20024;-75
2021/12/14 02:07:42;;;;;;;;;;;7.40;99.90;;;;;;5006290;28;19926;-75
2021/12/14 02:10:11;;;;;;;;;;;7.40;99.90;;;;;;5004900;28;19925;-75
2021/12/14 02:12:40;;;;;;;;;;;7.40;99.90;;;;;;5004247;28;20008;-75
2021/12/14 02:15:09;;;;;;;;;;;7.40;99.90;;;;;;5013167;28;19926;-74
2021/12/14 02:17:39;;;;;;;;;;;7.40;99.90;;;;;;5006257;28;19932;-73
2021/12/14 02:20:07;;;;;;;;;;;7.40;99.90;;;;;;5006650;28;19932;-73
2021/12/14 02:22:35;;;;;;;;;;;7.50;99.90;;;;;;4998846;28;20016;-76
2021/12/14 02:25:03;;;;;;;;;;;7.40;99.90;;;;;;5004556;28;20008;-75
2021/12/14 02:27:34;;;;;;;;;;;7.40;99.90;;;;;;5000209;28;20017;-75
2021/12/14 02:30:03;;;;;;;;;;;7.40;99.90;;;;;;5007068;28;20391;-75
2021/12/14 02:32:30;;;;;;;;;;;7.40;99.90;;;;;;4996873;28;20385;-74
2021/12/14 02:35:00;;;;;;;;;;;7.40;99.90;;;;;;5000529;28;19941;-74
2021/12/14 02:37:36;;;;;;;;;;;7.40;99.90;;;;;;4994342;28;19972;-74
2021/12/14 02:40:13;;;;;;;;;;;7.40;99.90;;;;;;5000197;28;19933;-74
2021/12/14 02:42:40;;;;;;;;;;;7.50;99.90;;;;;;5015120;28;20016;-75
2021/12/14 02:45:08;;;;;;;;;;;7.40;99.90;;;;;;5000184;28;19926;-74
2021/12/14 02:47:35;;;;;;;;;;;7.40;99.90;;;;;;5002828;28;19926;-75
2021/12/14 02:50:02;;;;;;;;;;;7.50;99.90;;;;;;5003258;28;19926;-75
2021/12/14 02:52:33;;;;;;;;;;;7.40;99.90;;;;;;4998156;28;20009;-74
2021/12/14 02:55:04;;;;;;;;;;;7.40;99.90;;;;;;4996735;28;19925;-76
2021/12/14 02:57:32;;;;;;;;;;;7.40;99.90;;;;;;5005818;28;20371;-75
2021/12/14 02:59:59;;;;;;;;;;;7.40;99.90;;;;;;4995689;28;20285;-75
2021/12/14 03:02:27;;;;;;;;;;;7.40;99.90;;;;;;4998613;28;19936;-75
2021/12/14 03:04:55;;;;;;;;;;;7.40;99.90;;;;;;5002581;28;20380;-75
2021/12/14 03:07:25;;;;;;;;;;;7.40;99.90;;;;;;5001648;28;19925;-75
2021/12/14 03:09:57;;;;;;;;;;;7.30;99.90;;;;;;4993503;28;19925;-75
2021/12/14 03:12:29;;;;;;;;;;;7.40;99.90;;;;;;4998880;28;19926;-75
2021/12/14 03:14:57;;;;;;;;;;;7.40;99.90;;;;;;5000074;28;19929;-75
2021/12/14 03:17:24;;;;;;;;;;;7.40;99.90;;;;;;4996043;28;20359;-75
2021/12/14 03:19:55;;;;;;;;;;;7.40;99.90;;;;;;5012181;28;20395;-75
2021/12/14 03:22:24;;;;;;;;;;;7.40;99.90;;;;;;5002702;28;19972;-75
2021/12/14 03:24:50;;;;;;;;;;;7.40;99.90;;;;;;4996617;28;19933;-75
2021/12/14 03:27:17;;;;;;;;;;;7.40;99.90;;;;;;4999175;28;19980;-75
2021/12/14 03:29:45;;;;;;;;;;;7.40;99.90;;;;;;5009155;28;19932;-75
2021/12/14 03:32:12;;;;;;;;;;;7.40;99.90;;;;;;5002024;28;19926;-75
2021/12/14 03:34:39;;;;;;;;;;;7.40;99.90;;;;;;4997512;28;19932;-75
2021/12/14 03:37:08;;;;;;;;;;;7.40;99.90;;;;;;5005770;28;20020;-74
2021/12/14 03:39:36;;;;;;;;;;;7.40;99.90;;;;;;4992452;28;19932;-75
2021/12/14 03:42:05;;;;;;;;;;;7.40;99.90;;;;;;5006555;28;20012;-74
2021/12/14 03:44:35;;;;;;;;;;;7.40;99.90;;;;;;5011769;28;19932;-74
2021/12/14 03:47:05;;;;;;;;;;;7.40;99.90;;;;;;5009228;28;20373;-75
2021/12/14 03:49:34;;;;;;;;;;;7.40;99.90;;;;;;5002729;28;19989;-74
2021/12/14 03:52:02;;;;;;;;;;;7.40;99.90;;;;;;5000356;28;19926;-78
2021/12/14 03:54:28;;;;;;;;;;;7.40;99.90;;;;;;4995553;28;19926;-73
2021/12/14 03:56:56;;;;;;;;;;;7.40;99.90;;;;;;4997841;28;19930;-75
2021/12/14 03:59:26;;;;;;;;;;;7.40;99.90;;;;;;5009730;28;19956;-73
2021/12/14 04:01:52;;;;;;;;;;;7.40;99.90;;;;;;5006874;28;19996;-73
2021/12/14 04:04:22;;;;;;;;;;;7.40;99.90;;;;;;4991965;28;19926;-74
2021/12/14 04:06:51;;;;;;;;;;;7.40;99.90;;;;;;5004801;28;19961;-74
2021/12/14 04:09:18;;;;;;;;;;;7.40;99.90;;;;;;5002074;28;20024;-73
2021/12/14 04:11:45;;;;;;;;;;;7.40;99.90;;;;;;5000603;28;19976;-74
2021/12/14 04:14:13;;;;;;;;;;;7.40;99.90;;;;;;4999179;28;19932;-74
2021/12/14 04:16:41;;;;;;;;;;;7.40;99.90;;;;;;5001664;28;19933;-74
2021/12/14 04:19:10;;;;;;;;;;;7.40;99.90;;;;;;4993857;28;19930;-73
2021/12/14 04:21:40;;;;;;;;;;;7.40;99.90;;;;;;5005634;28;20439;-76
2021/12/14 04:24:07;;;;;;;;;;;7.40;99.90;;;;;;4998937;28;19973;-75
2021/12/14 04:26:34;;;;;;;;;;;7.40;99.90;;;;;;5010051;28;19925;-74
2021/12/14 04:29:01;;;;;;;;;;;7.30;99.90;;;;;;4993691;28;19932;-75
2021/12/14 04:31:28;;;;;;;;;;;7.30;99.90;;;;;;5000670;28;19964;-78
2021/12/14 04:33:55;;;;;;;;;;;7.30;99.90;;;;;;5013247;28;19964;-76
2021/12/14 04:36:25;;;;;;;;;;;7.40;99.90;;;;;;5005004;28;19934;-75
2021/12/14 04:38:57;;;;;;;;;;;7.40;99.90;;;;;;4998490;28;19989;-74
2021/12/14 04:52:23;;;;;;;;;;;7.40;99.90;;;;;;5000125;28;19932;-77
2021/12/14 04:54:53;;;;;;;;;;;7.40;99.90;;;;;;5004636;28;19925;-75
2021/12/14 04:57:23;;;;;;;;;;;7.40;99.90;;;;;;5011200;28;19932;-73
2021/12/14 04:59:50;;;;;;;;;;;7.40;99.90;;;;;;5009584;28;19932;-74
2021/12/14 05:02:18;;;;;;;;;;;7.40;99.90;;;;;;4995422;28;19926;-74
2021/12/14 05:04:45;;;;;;;;;;;7.40;99.90;;;;;;4998634;28;19925;-74
2021/12/14 05:09:54;;;;;;;;;;;7.40;99.90;;;;;;4998019;28;19932;-74
2021/12/14 05:12:24;;;;;;;;;;;7.40;99.90;;;;;;4995702;28;20020;-74
2021/12/14 05:14:51;;;;;;;;;;;7.40;99.90;;;;;;4996099;28;19932;-74
2021/12/14 05:17:19;;;;;;;;;;;7.40;99.90;;;;;;4999386;28;19933;-74
2021/12/14 05:19:46;;;;;;;;;;;7.40;99.90;;;;;;5012398;28;20405;-74
2021/12/14 05:22:15;;;;;;;;;;;7.40;99.90;;;;;;5010592;28;19926;-75
2021/12/14 05:24:43;;;;;;;;;;;7.30;99.90;;;;;;5010305;28;20388;-74
2021/12/14 05:27:15;;;;;;;;;;;7.30;99.90;;;;;;5000264;28;20016;-74
2021/12/14 05:29:42;;;;;;;;;;;7.30;99.90;;;;;;5014249;28;20307;-74
2021/12/14 05:32:09;;;;;;;;;;;7.30;99.90;;;;;;5007081;28;19948;-74
2021/12/14 05:34:37;;;;;;;;;;;7.30;99.90;;;;;;5013503;28;19933;-74
2021/12/14 05:37:04;;;;;;;;;;;7.30;99.90;;;;;;5009700;28;19934;-74
2021/12/14 05:39:48;;;;;;;;;;;7.30;99.90;;;;;;5009603;28;19926;-74
2021/12/14 05:45:04;;;;;;;;;;;7.30;99.90;;;;;;5007107;28;19932;-74
2021/12/14 05:47:31;;;;;;;;;;;7.30;99.90;;;;;;5001902;28;20475;-74
2021/12/14 05:49:58;;;;;;;;;;;7.30;99.90;;;;;;5008573;28;19932;-73
2021/12/14 05:52:25;;;;;;;;;;;7.30;99.90;;;;;;5004730;28;19934;-74
2021/12/14 05:54:55;;;;;;;;;;;7.30;99.90;;;;;;5011426;28;20012;-75
2021/12/14 05:57:25;;;;;;;;;;;7.40;99.90;;;;;;4994716;28;19933;-74
2021/12/14 05:59:52;;;;;;;;;;;7.40;99.90;;;;;;4999403;28;19926;-74
2021/12/14 06:02:19;;;;;;;;;;;7.30;99.90;;;;;;5008435;28;20265;-73
2021/12/14 06:04:48;;;;;;;;;;;7.30;99.90;;;;;;5004938;28;20312;-74
2021/12/14 06:07:15;;;;;;;;;;;7.30;99.90;;;;;;5006624;28;20373;-74
2021/12/14 06:09:44;;;;;;;;;;;7.30;99.90;;;;;;5000851;28;20009;-74
2021/12/14 06:12:12;;;;;;;;;;;7.30;99.90;;;;;;5011586;28;19925;-74
2021/12/14 06:14:50;;;;;;;;;;;7.30;99.90;;;;;;5001421;28;20307;-75
2021/12/14 06:17:16;;;;;;;;;;;7.30;99.90;;;;;;4999804;28;20303;-75
2021/12/14 06:19:49;;;;;;;;;;;7.30;99.90;;;;;;5011303;28;19926;-74
2021/12/14 06:22:18;;;;;;;;;;;7.30;99.90;;;;;;5002173;28;19930;-73
2021/12/14 06:24:46;;;;;;;;;;;7.30;99.90;;;;;;4996890;28;19926;-74
2021/12/14 06:27:14;;;;;;;;;;;7.30;99.90;;;;;;4998522;28;20300;-74
2021/12/14 06:29:44;;;;;;;;;;;7.40;99.90;;;;;;5003501;28;19925;-75
2021/12/14 06:32:12;;;;;;;;;;;7.40;99.90;;;;;;5000886;28;20396;-74
2021/12/14 06:34:42;;;;;;;;;;;7.40;99.90;;;;;;4997612;28;19993;-73
2021/12/14 06:37:53;;;;;;;;;;;7.40;99.90;;;;;;5006769;28;19929;-74
2021/12/14 06:40:22;;;;;;;;;;;7.40;99.90;;;;;;5001581;28;19971;-75
2021/12/14 06:42:51;;;;;;;;;;;7.40;99.90;;;;;;5008670;28;19926;-80
2021/12/14 06:45:20;;;;;;;;;;;7.40;99.90;;;;;;5003748;28;19926;-74
2021/12/14 06:47:48;;;;;;;;;;;7.30;99.90;;;;;;5003299;28;19926;-75
2021/12/14 06:50:17;;;;;;;;;;;7.30;99.90;;;;;;4995815;28;20389;-74
2021/12/14 06:52:44;;;;;;;;;;;7.30;99.90;;;;;;5007753;28;20488;-75
2021/12/14 06:55:22;;;;;;;;;;;7.30;99.90;;;;;;5006225;28;19973;-75
2021/12/14 06:57:50;;;;;;;;;;;7.30;99.90;;;;;;5004929;28;19925;-75
2021/12/14 07:00:17;;;;;;;;;;;7.30;99.90;;;;;;5009182;28;20008;-74
2021/12/14 07:02:48;;;;;;;;;;;7.40;99.90;;;;;;4996157;28;19953;-74
2021/12/14 07:05:19;;;;;;;;;;;7.40;99.90;;;;;;4997517;28;20007;-73
2021/12/14 07:07:49;;;;;;;;;;;7.40;99.90;;;;;;4996187;28;19925;-73
2021/12/14 07:10:16;;;;;;;;;;;7.40;99.90;;;;;;4998362;28;19933;-75
2021/12/14 07:12:43;;;;;;;;;;;7.40;99.90;;;;;;5003206;28;19925;-74
2021/12/14 07:15:15;;;;;;;;;;;7.40;99.90;;;;;;4999045;28;19953;-75
2021/12/14 07:17:45;;;;;;;;;;;7.50;99.90;;;;;;4997752;28;20389;-73
2021/12/14 07:20:25;;;;;;;;;;;7.40;99.90;;;;;;5004757;28;19925;-74
2021/12/14 07:22:53;;;;;;;;;;;7.50;99.90;;;;;;4999552;28;19925;-78
2021/12/14 07:25:24;;;;;;;;;;;7.50;99.90;;;;;;5004918;28;20012;-75
2021/12/14 07:27:52;;;;;;;;;;;7.50;99.90;;;;;;5001885;28;19925;-73
2021/12/14 07:30:20;;;;;;;;;;;7.60;99.90;;;;;;5002870;28;19937;-74
2021/12/14 07:32:49;;;;;;;;;;;7.50;99.90;;;;;;5006308;28;19951;-74
2021/12/14 07:35:34;;;;;;;;;;;7.60;99.90;;;;;;5004956;28;19929;-75
2021/12/14 07:38:04;;;;;;;;;;;7.50;99.90;;;;;;5000481;28;19926;-72
2021/12/14 07:40:35;;;;;;;;;;;7.60;99.90;;;;;;5008230;28;20028;-74
2021/12/14 07:43:18;;;;;;;;;;;7.60;99.90;;;;;;4998207;28;20407;-75
2021/12/14 07:45:45;;;;;;;;;;;7.50;99.90;;;;;;5002126;28;20631;-72
2021/12/14 07:48:13;;;;;;;;;;;7.50;99.90;;;;;;4997685;28;19933;-74
2021/12/14 07:50:42;;;;;;;;;;;7.60;99.90;;;;;;4996698;28;20029;-75
2021/12/14 07:53:10;;;;;;;;;;;7.60;99.90;;;;;;4994644;28;19980;-75
2021/12/14 07:55:42;;;;;;;;;;;7.60;99.90;;;;;;4999388;28;20028;-75
2021/12/14 07:58:08;;;;;;;;;;;7.60;99.90;;;;;;4998306;28;19996;-76
2021/12/14 08:00:40;;;;;;;;;;;7.60;99.90;;;;;;5001676;28;19925;-74
2021/12/14 08:03:07;;;;;;;;;;;7.60;99.90;;;;;;5001587;28;19972;-74
2021/12/14 08:05:35;;;;;;;;;;;7.60;99.90;;;;;;4997686;28;19926;-74
2021/12/14 08:08:03;;;;;;;;;;;7.60;99.90;;;;;;4996564;28;21089;-73
2021/12/14 08:10:37;;;;;;;;;;;7.60;99.90;;;;;;5000707;28;19925;-74
2021/12/14 08:13:07;;;;;;;;;;;7.70;99.90;;;;;;4999495;28;19925;-74
2021/12/14 08:15:37;;;;;;;;;;;7.60;99.90;;;;;;4999450;28;19949;-75
2021/12/14 08:18:10;;;;;;;;;;;7.70;99.90;;;;;;4999563;28;19936;-77
2021/12/14 08:20:38;;;;;;;;;;;7.60;99.90;;;;;;5003975;28;20028;-81
2021/12/14 08:23:13;;;;;;;;;;;7.70;99.90;;;;;;4997201;28;19933;-77
2021/12/14 08:25:42;;;;;;;;;;;7.70;99.90;;;;;;4999044;28;19930;-77
2021/12/14 08:28:08;;;;;;;;;;;7.70;99.90;;;;;;4999512;28;19996;-76
2021/12/14 08:30:36;;;;;;;;;;;7.70;99.90;;;;;;4993616;28;20040;-75
2021/12/14 08:33:03;;;;;;;;;;;7.70;99.90;;;;;;5004552;28;20016;-77
2021/12/14 08:35:30;;;;;;;;;;;7.70;99.90;;;;;;4997477;28;19925;-76
2021/12/14 08:38:00;;;;;;;;;;;7.70;99.90;;;;;;4998742;28;19929;-76
2021/12/14 08:40:28;;;;;;;;;;;7.70;99.90;;;;;;5003924;28;20407;-75
2021/12/14 08:43:02;;;;;;;;;;;7.70;99.90;;;;;;5002812;28;20020;-76
2021/12/14 08:45:33;;;;;;;;;;;7.80;99.90;;;;;;5007458;28;20357;-76
2021/12/14 08:48:09;;;;;;;;;;;7.80;99.90;;;;;;5002932;28;20016;-76
2021/12/14 08:50:37;;;;;;;;;;;7.90;99.90;;;;;;5009054;28;20359;-77
2021/12/14 08:53:04;;;;;;;;;;;7.90;99.90;;;;;;5000372;28;20028;-76
2021/12/14 08:55:32;;;;;;;;;;;8.00;99.90;;;;;;5003512;28;19932;-77
2021/12/14 08:58:01;;;;;;;;;;;8.00;99.90;;;;;;5006827;28;20385;-75
2021/12/14 09:00:31;;;;;;;;;;;8.10;99.90;;;;;;5003704;28;19932;-75
2021/12/14 09:03:00;;;;;;;;;;;8.10;99.90;;;;;;5007537;28;19925;-75
2021/12/14 09:05:28;;;;;;;;;;;8.20;99.90;;;;;;5008492;28;19972;-74
2021/12/14 09:07:55;;;;;;;;;;;8.20;99.90;;;;;;5008603;28;19935;-72
2021/12/14 09:10:23;;;;;;;;;;;8.30;99.90;;;;;;5010738;28;19932;-73
2021/12/14 09:12:52;;;;;;;;;;;8.30;99.90;;;;;;5005223;28;19961;-73
2021/12/14 09:15:23;;;;;;;;;;;8.30;99.90;;;;;;5005939;28;19930;-73
2021/12/14 09:17:50;;;;;;;;;;;8.40;99.90;;;;;;5005655;28;19971;-72
2021/12/14 09:20:19;;;;;;;;;;;8.40;99.90;;;;;;5005206;28;19941;-72
2021/12/14 09:22:47;;;;;;;;;;;8.40;99.90;;;;;;5001088;28;19933;-71
2021/12/14 09:25:14;;;;;;;;;;;8.40;99.90;;;;;;5007591;28;19930;-71
2021/12/14 09:27:41;;;;;;;;;;;8.40;99.90;;;;;;5009278;28;19925;-72
2021/12/14 09:30:09;;;;;;;;;;;8.40;99.90;;;;;;5003480;28;19925;-72
2021/12/14 09:32:37;;;;;;;;;;;8.40;99.90;;;;;;5006290;28;20348;-72
2021/12/14 09:35:05;;;;;;;;;;;8.40;99.90;;;;;;5007394;28;20415;-73
2021/12/14 09:37:32;;;;;;;;;;;8.50;99.90;;;;;;5006239;28;19926;-72
2021/12/14 09:40:01;;;;;;;;;;;8.40;99.90;;;;;;5005583;28;20024;-72
2021/12/14 09:42:29;;;;;;;;;;;8.50;99.90;;;;;;5005537;28;20315;-72
2021/12/14 09:44:59;;;;;;;;;;;8.50;99.90;;;;;;5010929;28;19925;-72
2021/12/14 09:47:29;;;;;;;;;;;8.50;99.90;;;;;;5018803;28;20367;-72
2021/12/14 09:49:59;;;;;;;;;;;8.50;99.90;;;;;;5012432;28;19929;-72
2021/12/14 09:52:27;;;;;;;;;;;8.50;99.90;;;;;;5010404;28;19931;-73
2021/12/14 09:54:55;;;;;;;;;;;8.50;99.90;;;;;;5004877;28;20411;-72
2021/12/14 09:57:23;;;;;;;;;;;8.40;99.90;;;;;;5002177;28;19992;-72
2021/12/14 09:59:51;;;;;;;;;;;8.40;99.90;;;;;;5005976;28;19925;-73
2021/12/14 10:02:20;;;;;;;;;;;8.40;99.90;;;;;;5002080;28;19926;-72
2021/12/14 10:04:49;;;;;;;;;;;8.40;99.90;;;;;;5014086;28;20024;-73
2021/12/14 10:09:52;;;;;;;;;;;8.50;99.90;;;;;;5030209;22;20303;-71
2021/12/14 10:12:49;;;;;;;;;;;8.50;99.90;;;;;;5009064;28;20407;-71
2021/12/14 10:15:21;;;;;;;;;;;8.60;99.90;;;;;;5004881;28;19941;-71
2021/12/14 10:17:56;;;;;;;;;;;8.70;99.90;;;;;;5010120;28;19971;-72
2021/12/14 10:20:26;;;;;;;;;;;8.60;99.90;;;;;;5005136;28;19937;-73
2021/12/14 10:22:53;;;;;;;;;;;8.60;99.90;;;;;;5006675;28;19956;-71
2021/12/14 10:25:23;;;;;;;;;;;8.60;99.90;;;;;;5007321;28;20428;-71
2021/12/14 10:27:50;;;;;;;;;;;8.60;99.90;;;;;;5011043;28;19925;-72
2021/12/14 10:30:19;;;;;;;;;;;8.60;99.90;;;;;;5017703;28;19925;-73
2021/12/14 10:32:46;;;;;;;;;;;8.60;99.90;;;;;;5013605;28;19983;-75
2021/12/14 10:35:16;;;;;;;;;;;8.60;99.90;;;;;;5013471;28;19955;-75
2021/12/14 10:43:12;;;;;;;;;;;8.80;99.90;;;;;;5025935;28;19939;-71
2021/12/14 10:45:41;;;;;;;;;;;8.80;99.90;;;;;;5034352;28;20148;-72
2021/12/14 10:48:07;;;;;;;;;;;8.90;99.90;;;;;;5025019;28;19959;-71
2021/12/14 10:50:36;;;;;;;;;;;8.80;99.90;;;;;;5023880;28;20319;-71
2021/12/14 10:53:04;;;;;;;;;;;8.90;99.90;;;;;;5022946;28;20296;-74
2021/12/14 10:55:34;;;;;;;;;;;8.90;99.90;;;;;;5026381;28;19925;-74
2021/12/14 10:58:04;;;;;;;;;;;9.00;99.90;;;;;;5027683;28;19929;-74
2021/12/14 11:00:35;;;;;;;;;;;9.00;99.90;;;;;;5033778;28;19929;-74
2021/12/14 11:03:04;;;;;;;;;;;9.10;99.90;;;;;;5015702;28;19983;-74
2021/12/14 11:05:31;;;;;;;;;;;9.10;99.90;;;;;;5023122;28;20002;-73
2021/12/14 11:07:58;;;;;;;;;;;9.10;99.90;;;;;;5026560;28;19929;-71
2021/12/14 11:10:29;;;;;;;;;;;9.10;99.90;;;;;;5021620;28;19925;-76
2021/12/14 11:12:58;;;;;;;;;;;9.20;99.90;;;;;;5031818;28;19986;-74
2021/12/14 11:15:27;;;;;;;;;;;9.30;99.90;;;;;;5028264;28;19924;-73
2021/12/14 11:18:15;;;;;;;;;;;9.20;99.90;;;;;;5025993;28;20004;-75
2021/12/14 11:20:48;;;;;;;;;;;9.20;99.90;;;;;;5031822;28;19926;-74
2021/12/14 11:23:16;;;;;;;;;;;9.20;99.90;;;;;;5013388;28;19931;-74
2021/12/14 11:25:48;;;;;;;;;;;9.30;99.90;;;;;;5024426;28;20030;-75
2021/12/14 11:28:17;;;;;;;;;;;9.40;99.90;;;;;;5016860;28;20375;-74
2021/12/14 11:30:47;;;;;;;;;;;9.40;99.90;;;;;;5018001;28;19933;-76
2021/12/14 11:33:17;;;;;;;;;;;9.30;99.90;;;;;;5024262;28;19925;-76
2021/12/14 11:35:45;;;;;;;;;;;9.30;99.90;;;;;;5033802;28;20325;-76
2021/12/14 11:38:29;;;;;;;;;;;9.40;99.90;;;;;;5025006;28;20266;-75
2021/12/14 11:40:57;;;;;;;;;;;9.40;99.90;;;;;;5026939;28;20047;-76
2021/12/14 11:43:25;;;;;;;;;;;9.50;99.90;;;;;;5023790;28;20032;-74
2021/12/14 11:45:53;;;;;;;;;;;9.40;99.90;;;;;;5012348;28;20432;-73
2021/12/14 11:48:28;;;;;;;;;;;9.50;99.90;;;;;;5020966;28;19925;-74
2021/12/14 11:50:55;;;;;;;;;;;9.40;99.90;;;;;;5021439;28;19932;-74
2021/12/14 11:53:22;;;;;;;;;;;9.50;99.90;;;;;;5020910;28;19935;-72
2021/12/14 11:55:50;;;;;;;;;;;9.50;99.90;;;;;;5012850;28;19925;-76
2021/12/14 11:58:28;;;;;;;;;;;9.50;99.90;;;;;;5018445;28;19929;-74
2021/12/14 12:00:59;;;;;;;;;;;9.50;99.90;;;;;;5019458;28;19941;-73
2021/12/14 12:03:28;;;;;;;;;;;9.50;99.90;;;;;;5011857;28;19929;-74
2021/12/14 12:06:02;;;;;;;;;;;9.50;99.90;;;;;;5017422;28;20020;-75
2021/12/14 12:11:14;;;;;;;;;;;9.70;99.90;;;;;;5024441;28;19932;-74
2021/12/14 12:13:42;;;;;;;;;;;9.70;99.90;;;;;;5028252;28;19937;-75
2021/12/14 12:16:13;;;;;;;;;;;9.70;99.90;;;;;;5020080;28;20392;-75
2021/12/14 12:18:40;;;;;;;;;;;9.70;99.90;;;;;;5024180;28;19929;-76
2021/12/14 12:21:07;;;;;;;;;;;9.70;99.90;;;;;;5024912;28;20396;-75
2021/12/14 12:23:34;;;;;;;;;;;9.70;99.90;;;;;;5024783;28;20000;-74
2021/12/14 12:26:08;;;;;;;;;;;9.70;99.90;;;;;;5205949;22;19925;-77
2021/12/14 12:28:37;;;;;;;;;;;9.70;99.90;;;;;;5027590;28;19936;-74
2021/12/14 12:31:07;;;;;;;;;;;9.70;99.90;;;;;;5024677;28;20008;-76
2021/12/14 12:33:36;;;;;;;;;;;9.70;99.90;;;;;;5027733;28;19933;-74
2021/12/14 12:36:07;;;;;;;;;;;9.70;99.90;;;;;;5026788;28;19972;-74
2021/12/14 12:38:54;;;;;;;;;;;9.70;99.90;;;;;;5028355;28;19965;-74
2021/12/14 12:41:26;;;;;;;;;;;9.70;99.90;;;;;;5018126;28;20376;-75
2021/12/14 12:43:54;;;;;;;;;;;9.70;99.90;;;;;;5017114;28;19925;-75
2021/12/14 12:46:22;;;;;;;;;;;9.70;99.90;;;;;;5012877;28;20371;-75
2021/12/14 12:48:56;;;;;;;;;;;9.70;99.90;;;;;;5027605;28;20002;-74
2021/12/14 12:51:41;;;;;;;;;;;9.60;99.90;;;;;;5019705;28;19952;-74
2021/12/14 12:54:12;;;;;;;;;;;9.60;99.90;;;;;;5017413;28;19930;-75
2021/12/14 12:56:42;;;;;;;;;;;9.60;99.90;;;;;;5019966;28;20291;-76
2021/12/14 12:59:09;;;;;;;;;;;9.70;99.90;;;;;;5018077;28;19957;-74
2021/12/14 13:01:36;;;;;;;;;;;9.70;99.90;;;;;;5012027;28;20276;-74
2021/12/14 13:04:04;;;;;;;;;;;9.70;99.90;;;;;;5021471;28;19931;-75
2021/12/14 13:06:31;;;;;;;;;;;9.70;99.90;;;;;;5019985;28;20781;-76
2021/12/14 13:08:59;;;;;;;;;;;9.70;99.90;;;;;;5021417;28;19929;-75
2021/12/14 13:11:26;;;;;;;;;;;9.70;99.90;;;;;;5023867;28;19964;-75
2021/12/14 13:13:54;;;;;;;;;;;9.70;99.90;;;;;;5023837;28;19979;-75
2021/12/14 13:16:21;;;;;;;;;;;9.70;99.90;;;;;;5019766;28;19932;-74
2021/12/14 13:18:52;;;;;;;;;;;9.70;99.90;;;;;;5025544;28;20008;-75
2021/12/14 13:21:26;;;;;;;;;;;9.70;99.90;;;;;;5020022;28;20500;-75
2021/12/14 13:23:58;;;;;;;;;;;9.70;99.90;;;;;;5027840;28;19925;-71
2021/12/14 13:26:36;;;;;;;;;;;9.70;99.90;;;;;;5016922;28;20348;-72
2021/12/14 13:29:20;;;;;;;;;;;9.70;99.90;;;;;;5019072;28;20372;-75
2021/12/14 13:31:49;;;;;;;;;;;9.70;99.90;;;;;;5019300;28;19968;-75
2021/12/14 13:34:16;;;;;;;;;;;9.70;99.90;;;;;;5022755;28;19925;-75
2021/12/14 13:36:45;;;;;;;;;;;9.70;99.90;;;;;;5019342;28;19963;-74
2021/12/14 13:39:13;;;;;;;;;;;9.70;99.90;;;;;;5023817;28;19925;-74
2021/12/14 13:41:58;;;;;;;;;;;9.70;99.90;;;;;;5016064;28;19933;-75
2021/12/14 13:44:25;;;;;;;;;;;9.70;99.90;;;;;;5021149;28;19933;-73
2021/12/14 13:46:52;;;;;;;;;;;9.70;99.90;;;;;;5025572;28;19933;-74
2021/12/14 13:49:19;;;;;;;;;;;9.70;99.90;;;;;;5015603;28;20402;-76
2021/12/14 13:51:47;;;;;;;;;;;9.60;99.90;;;;;;5024414;28;19932;-74
2021/12/14 13:54:15;;;;;;;;;;;9.60;99.90;;;;;;5027279;28;19971;-75
2021/12/14 13:56:46;;;;;;;;;;;9.60;99.90;;;;;;5029018;28;19925;-75
2021/12/14 13:59:15;;;;;;;;;;;9.70;99.90;;;;;;5029296;28;20387;-75
2021/12/14 14:01:44;;;;;;;;;;;9.70;99.90;;;;;;5026899;28;20029;-75
2021/12/14 14:04:13;;;;;;;;;;;9.70;99.90;;;;;;5030375;28;19945;-75
2021/12/14 14:06:41;;;;;;;;;;;9.70;99.90;;;;;;5016991;28;20020;-85
2021/12/14 14:09:10;;;;;;;;;;;9.70;99.90;;;;;;5016530;28;20312;-77
2021/12/14 14:11:38;;;;;;;;;;;9.70;99.90;;;;;;5016456;28;19936;-77
2021/12/14 14:14:08;;;;;;;;;;;9.70;99.90;;;;;;5024297;28;19987;-73
2021/12/14 14:16:36;;;;;;;;;;;9.60;99.90;;;;;;5024871;28;19925;-76
2021/12/14 14:19:08;;;;;;;;;;;9.60;99.90;;;;;;5017562;28;19983;-74
2021/12/14 14:21:35;;;;;;;;;;;9.60;99.90;;;;;;5024589;28;19936;-74
2021/12/14 14:24:01;;;;;;;;;;;9.60;99.90;;;;;;5016604;28;20005;-74
2021/12/14 14:26:40;;;;;;;;;;;9.60;99.90;;;;;;5021830;28;20400;-76
2021/12/14 14:29:08;;;;;;;;;;;9.50;99.90;;;;;;5021704;28;19965;-75
2021/12/14 14:31:42;;;;;;;;;;;9.60;99.90;;;;;;5020663;28;19933;-75
2021/12/14 14:34:18;;;;;;;;;;;9.60;99.90;;;;;;5016084;28;19925;-74
2021/12/14 14:36:45;;;;;;;;;;;9.60;99.90;;;;;;5022595;28;20016;-73
2021/12/14 14:39:16;;;;;;;;;;;9.60;99.90;;;;;;5020629;28;19930;-72
2021/12/14 14:41:46;;;;;;;;;;;9.60;99.90;;;;;;5019136;28;19931;-73
2021/12/14 14:44:16;;;;;;;;;;;9.60;99.90;;;;;;5022499;28;19925;-73
2021/12/14 14:46:51;;;;;;;;;;;9.60;99.90;;;;;;5015076;28;20011;-74
2021/12/14 14:49:18;;;;;;;;;;;9.60;99.90;;;;;;5020728;28;19933;-71
2021/12/14 14:51:46;;;;;;;;;;;9.50;99.90;;;;;;5018645;28;20476;-72
2021/12/14 14:54:31;;;;;;;;;;;9.50;99.90;;;;;;5017753;28;20039;-73
2021/12/14 14:56:59;;;;;;;;;;;9.50;99.90;;;;;;5000423;28;19931;-72
2021/12/14 14:59:25;;;;;;;;;;;9.50;99.90;;;;;;5026747;28;19925;-74
2021/12/14 15:01:52;;;;;;;;;;;9.50;99.90;;;;;;5020672;28;19925;-75
2021/12/14 15:04:19;;;;;;;;;;;9.40;99.90;;;;;;5023950;28;20012;-75
2021/12/14 15:06:47;;;;;;;;;;;9.40;99.90;;;;;;5017456;28;19998;-77
2021/12/14 15:09:16;;;;;;;;;;;9.30;99.90;;;;;;5016436;28;20443;-74
2021/12/14 15:11:45;;;;;;;;;;;9.30;99.90;;;;;;5022987;28;19929;-75
2021/12/14 15:14:15;;;;;;;;;;;9.30;99.90;;;;;;5024736;28;19925;-72